Time;durP1;ratioP1;P1;durP2;ratioP2;P2;SDS_P1;SDS_P2;PMS_P1;PMS_P2;Temp;Humidity;BMP_temperature;BMP_pressure;BME280_temperature;BME280_humidity;BME280_pressure;Samples;Min_cycle;Max_cycle;Signal;HPM_P1;HPM_P2
2022/01/28 00:02:24;;;;;;;19.65;10.95;;;2.30;99.90;;;;;;5050270;28;20081;-68
2022/01/28 00:04:42;;;;;;;18.67;11.20;;;2.30;99.90;;;;;;5069835;28;20099;-68
2022/01/28 00:07:08;;;;;;;19.77;11.32;;;2.30;99.90;;;;;;5063517;28;20044;-68
2022/01/28 00:09:33;;;;;;;18.42;10.90;;;2.30;99.90;;;;;;5051055;28;20028;-69
2022/01/28 00:12:10;;;;;;;17.83;11.48;;;2.40;99.90;;;;;;5062472;28;20400;-68
2022/01/28 00:14:53;;;;;;;20.38;11.57;;;2.40;99.90;;;;;;5044139;28;20025;-68
2022/01/28 00:38:56;;;;;;;21.70;11.38;;;2.40;99.90;;;;;;5076369;22;20125;-90
2022/01/28 00:41:22;;;;;;;24.10;12.23;;;2.50;99.90;;;;;;5080609;28;20032;-91
2022/01/28 00:43:47;;;;;;;22.10;12.02;;;2.50;99.90;;;;;;5061594;28;20036;-90
2022/01/28 00:46:13;;;;;;;22.10;11.90;;;2.50;99.90;;;;;;5080149;28;20088;-90
2022/01/28 00:48:39;;;;;;;18.20;11.45;;;2.50;99.90;;;;;;5063362;28;20057;-90
2022/01/28 00:51:05;;;;;;;18.48;11.20;;;2.50;99.90;;;;;;5063991;28;20035;-90
2022/01/28 00:53:31;;;;;;;16.55;9.77;;;2.50;99.90;;;;;;5064405;28;20030;-90
2022/01/28 00:55:58;;;;;;;19.17;10.88;;;2.50;99.90;;;;;;5067750;28;20036;-91
2022/01/28 00:58:24;;;;;;;20.75;10.98;;;2.40;99.90;;;;;;5067557;28;20029;-90
2022/01/28 01:00:51;;;;;;;22.25;12.90;;;2.50;99.90;;;;;;5060954;28;20558;-90
2022/01/28 01:03:17;;;;;;;20.30;12.07;;;2.40;99.90;;;;;;5070607;28;20048;-90
2022/01/28 01:05:43;;;;;;;21.30;12.45;;;2.40;99.90;;;;;;5059009;28;20607;-91
2022/01/28 01:08:09;;;;;;;24.98;12.35;;;2.40;99.90;;;;;;5064126;28;20123;-91
2022/01/28 01:10:35;;;;;;;22.98;12.75;;;2.40;99.90;;;;;;5069931;28;20044;-92
2022/01/28 01:13:01;;;;;;;26.70;13.55;;;2.40;99.90;;;;;;5084372;28;20032;-91
2022/01/28 01:15:33;;;;;;;21.70;12.88;;;2.40;99.90;;;;;;5071211;28;20028;-90
2022/01/28 01:18:16;;;;;;;20.95;12.02;;;2.50;99.90;;;;;;5086876;28;20145;-91
2022/01/28 01:25:43;;;;;;;23.00;13.23;;;2.50;99.90;;;;;;5089196;28;20039;-91
2022/01/28 01:28:11;;;;;;;26.95;13.10;;;2.50;99.90;;;;;;5071383;28;20055;-90
2022/01/28 01:30:40;;;;;;;23.77;14.48;;;2.50;99.90;;;;;;5071329;28;20230;-91
2022/01/28 01:33:07;;;;;;;26.23;13.95;;;2.50;99.90;;;;;;5071959;28;20028;-91
2022/01/28 01:35:32;;;;;;;27.05;13.45;;;2.50;99.90;;;;;;5072034;28;20028;-90
2022/01/28 01:37:59;;;;;;;26.02;13.50;;;2.50;99.90;;;;;;5072334;28;20506;-91
2022/01/28 01:40:31;;;;;;;22.75;13.25;;;2.50;99.90;;;;;;5071419;28;20024;-91
2022/01/28 01:43:15;;;;;;;21.60;13.02;;;2.50;99.90;;;;;;5074709;28;20106;-91
2022/01/28 01:53:34;;;;;;;23.88;11.98;;;2.50;99.90;;;;;;5089843;28;20088;-91
2022/01/28 01:56:00;;;;;;;20.63;11.95;;;2.60;99.90;;;;;;5069353;28;20036;-90
2022/01/28 01:58:30;;;;;;;20.27;11.57;;;2.60;99.90;;;;;;5069732;28;20034;-91
2022/01/28 02:01:01;;;;;;;21.45;12.07;;;2.50;99.90;;;;;;5088142;28;20020;-90
2022/01/28 02:03:27;;;;;;;19.35;11.50;;;2.60;99.90;;;;;;5073458;28;20032;-90
2022/01/28 02:05:58;;;;;;;22.08;12.60;;;2.60;99.90;;;;;;5073437;28;20040;-91
2022/01/28 02:08:31;;;;;;;21.63;11.60;;;2.60;99.90;;;;;;5072454;28;20035;-91
2022/01/28 02:10:58;;;;;;;18.88;11.10;;;2.60;99.90;;;;;;5072380;28;20032;-91
2022/01/28 02:13:29;;;;;;;21.73;11.25;;;2.60;99.90;;;;;;5074781;28;20035;-91
2022/01/28 02:15:56;;;;;;;20.85;11.45;;;2.60;99.90;;;;;;5081874;28;20028;-91
2022/01/28 02:18:23;;;;;;;16.52;9.80;;;2.60;99.90;;;;;;5073662;28;20077;-91
2022/01/28 02:20:51;;;;;;;17.73;10.48;;;2.60;99.90;;;;;;5066409;28;20024;-90
2022/01/28 02:23:17;;;;;;;17.80;10.32;;;2.60;99.90;;;;;;5093374;28;20024;-90
2022/01/28 02:25:44;;;;;;;18.65;9.38;;;2.60;99.90;;;;;;5073378;28;20035;-91
2022/01/28 02:28:12;;;;;;;19.10;10.77;;;2.60;99.90;;;;;;5069196;28;20118;-91
2022/01/28 02:30:38;;;;;;;15.82;9.82;;;2.60;99.90;;;;;;5076234;28;20024;-90
2022/01/28 02:33:16;;;;;;;17.05;9.75;;;2.60;99.90;;;;;;5074760;28;20028;-91
2022/01/28 02:35:43;;;;;;;18.80;9.93;;;2.60;99.90;;;;;;5074062;28;20468;-91
2022/01/28 02:38:14;;;;;;;16.23;10.02;;;2.60;99.90;;;;;;5073144;28;20043;-91
2022/01/28 02:40:46;;;;;;;15.55;9.27;;;2.60;99.90;;;;;;5090510;28;20032;-90
2022/01/28 02:45:48;;;;;;;15.98;9.68;;;2.60;99.90;;;;;;5091077;28;20140;-91
2022/01/28 02:48:18;;;;;;;15.15;9.85;;;2.60;99.90;;;;;;5072176;28;20040;-90
2022/01/28 02:53:30;;;;;;;17.63;11.38;;;2.60;99.90;;;;;;5091121;28;20028;-91
2022/01/28 02:55:59;;;;;;;18.25;10.43;;;2.60;99.90;;;;;;5072920;28;20214;-91
2022/01/28 02:58:26;;;;;;;22.20;11.77;;;2.50;99.90;;;;;;5072962;28;20020;-90
2022/01/28 03:00:55;;;;;;;20.50;10.85;;;2.60;99.90;;;;;;5074218;28;20480;-91
2022/01/28 03:03:22;;;;;;;18.33;10.40;;;2.50;99.90;;;;;;5091355;28;20024;-91
2022/01/28 03:05:49;;;;;;;20.30;11.00;;;2.60;99.90;;;;;;5072828;28;20471;-91
2022/01/28 03:08:15;;;;;;;16.52;9.90;;;2.60;99.90;;;;;;5067986;28;20078;-91
2022/01/28 03:10:47;;;;;;;20.23;10.52;;;2.50;99.90;;;;;;5089982;28;20032;-90
2022/01/28 03:15:40;;;;;;;18.77;10.95;;;2.50;99.90;;;;;;5090470;28;20448;-90
2022/01/28 03:18:19;;;;;;;16.08;9.77;;;2.50;99.90;;;;;;5072178;28;20058;-91
2022/01/28 03:23:16;;;;;;;18.95;10.52;;;2.60;99.90;;;;;;5090914;28;20111;-90
2022/01/28 03:25:44;;;;;;;16.75;9.82;;;2.60;99.90;;;;;;5070854;28;20021;-91
2022/01/28 03:28:10;;;;;;;15.25;9.40;;;2.60;99.90;;;;;;5064963;28;20039;-91
2022/01/28 03:30:36;;;;;;;18.20;10.52;;;2.60;99.90;;;;;;5094447;28;20024;-90
2022/01/28 03:33:02;;;;;;;19.13;10.43;;;2.60;99.90;;;;;;5072394;28;20165;-91
2022/01/28 03:35:28;;;;;;;17.40;9.52;;;2.60;99.90;;;;;;5073359;28;20038;-90
2022/01/28 03:37:59;;;;;;;17.38;9.10;;;2.60;99.90;;;;;;5072809;28;20032;-91
2022/01/28 03:40:25;;;;;;;15.37;9.50;;;2.60;99.90;;;;;;5073494;28;20503;-90
2022/01/28 03:42:51;;;;;;;16.08;8.93;;;2.60;99.90;;;;;;5089876;28;20116;-91
2022/01/28 03:45:16;;;;;;;15.93;9.15;;;2.60;99.90;;;;;;5073882;28;20039;-90
2022/01/28 03:47:42;;;;;;;16.08;8.80;;;2.50;99.90;;;;;;5072905;28;20429;-91
2022/01/28 03:50:08;;;;;;;13.73;8.52;;;2.60;99.90;;;;;;5072864;28;20088;-91
2022/01/28 03:52:33;;;;;;;13.90;8.55;;;2.50;99.90;;;;;;5072966;28;20020;-90
2022/01/28 03:54:59;;;;;;;14.60;8.43;;;2.60;99.90;;;;;;5072834;28;20031;-90
2022/01/28 03:57:25;;;;;;;13.00;8.43;;;2.50;99.90;;;;;;5091041;28;20031;-90
2022/01/28 03:59:50;;;;;;;16.40;8.73;;;2.60;99.90;;;;;;5074091;28;20080;-91
2022/01/28 04:02:20;;;;;;;13.43;8.07;;;2.50;99.90;;;;;;5071434;28;20034;-91
2022/01/28 04:12:51;;;;;;;18.95;9.23;;;2.60;99.90;;;;;;5091569;28;20118;-91
2022/01/28 04:18:21;;;;;;;18.60;9.32;;;2.60;99.90;;;;;;5007582;28;20045;-90
2022/01/28 04:20:47;;;;;;;16.23;9.32;;;2.60;99.90;;;;;;5023670;28;20022;-91
2022/01/28 04:23:12;;;;;;;15.50;8.60;;;2.60;99.90;;;;;;5037811;28;20032;-90
2022/01/28 04:25:38;;;;;;;15.45;9.00;;;2.60;99.90;;;;;;5071642;28;20057;-90
2022/01/28 04:28:03;;;;;;;15.80;8.30;;;2.60;99.90;;;;;;5071367;28;20454;-90
2022/01/28 04:30:29;;;;;;;13.68;7.80;;;2.60;99.90;;;;;;5072236;28;20032;-90
2022/01/28 04:32:55;;;;;;;12.65;7.88;;;2.60;99.90;;;;;;5068734;28;20032;-90
2022/01/28 04:35:20;;;;;;;14.18;8.55;;;2.60;99.90;;;;;;5067822;28;20446;-90
2022/01/28 04:38:07;;;;;;;12.95;8.35;;;2.60;99.90;;;;;;5071283;28;20538;-91
2022/01/28 04:40:39;;;;;;;15.20;8.65;;;2.60;99.90;;;;;;5061846;28;20818;-91
2022/01/28 04:45:46;;;;;;;18.05;10.10;;;2.60;99.90;;;;;;5090418;28;20039;-91
2022/01/28 04:48:29;;;;;;;18.40;10.30;;;2.60;99.90;;;;;;5090375;28;20031;-91
2022/01/28 04:54:00;;;;;;;17.80;9.50;;;2.60;99.90;;;;;;5091302;28;20021;-90
2022/01/28 04:56:43;;;;;;;18.58;10.15;;;2.60;99.90;;;;;;5088457;28;20039;-91
2022/01/28 05:04:46;;;;;;;16.50;9.50;;;2.60;99.90;;;;;;5083516;22;20102;-69
2022/01/28 05:28:22;;;;;;;17.77;9.25;;;2.70;99.90;;;;;;5047703;28;20082;-67
2022/01/28 05:30:48;;;;;;;17.30;9.70;;;2.70;99.90;;;;;;5046940;28;20381;-68
2022/01/28 05:33:14;;;;;;;18.48;9.43;;;2.70;99.90;;;;;;5048645;28;20110;-68
2022/01/28 05:35:40;;;;;;;17.25;8.48;;;2.70;99.90;;;;;;5048762;28;20477;-68
2022/01/28 05:38:06;;;;;;;17.85;8.77;;;2.70;99.90;;;;;;5031132;28;20127;-68
2022/01/28 05:40:31;;;;;;;14.13;8.38;;;2.70;99.90;;;;;;5043004;28;20097;-67
2022/01/28 05:42:57;;;;;;;16.13;8.55;;;2.70;99.90;;;;;;5047183;28;20029;-67
2022/01/28 05:45:22;;;;;;;12.45;7.55;;;2.70;99.90;;;;;;5066011;28;20029;-68
2022/01/28 05:47:48;;;;;;;17.02;7.80;;;2.70;99.90;;;;;;5052371;28;20028;-70
2022/01/28 05:50:14;;;;;;;19.92;9.00;;;2.70;99.90;;;;;;5059178;28;20067;-69
2022/01/28 05:52:39;;;;;;;18.08;9.13;;;2.70;99.90;;;;;;5040851;28;20117;-69
2022/01/28 05:55:06;;;;;;;17.42;9.13;;;2.70;99.90;;;;;;5036370;28;20033;-69
2022/01/28 05:57:31;;;;;;;18.10;8.50;;;2.70;99.90;;;;;;5038520;28;20029;-69
2022/01/28 05:59:57;;;;;;;16.23;9.15;;;2.70;99.90;;;;;;5045228;28;20025;-69
2022/01/28 06:02:22;;;;;;;16.98;8.80;;;2.70;99.90;;;;;;5042916;28;20053;-69
2022/01/28 06:04:48;;;;;;;16.48;9.25;;;2.70;99.90;;;;;;5037797;28;20422;-69
2022/01/28 06:07:14;;;;;;;20.02;8.73;;;2.70;99.90;;;;;;5040013;28;20453;-69
2022/01/28 06:09:39;;;;;;;15.98;9.13;;;2.70;99.90;;;;;;5050189;28;20032;-69
2022/01/28 06:12:06;;;;;;;13.50;8.20;;;2.70;99.90;;;;;;5042857;28;20037;-69
2022/01/28 06:14:31;;;;;;;15.82;9.23;;;2.70;99.90;;;;;;5038726;28;20397;-69
2022/01/28 06:16:57;;;;;;;15.07;9.27;;;2.70;99.90;;;;;;5039347;28;20029;-67
2022/01/28 06:19:22;;;;;;;15.48;8.68;;;2.70;99.90;;;;;;5039843;28;20666;-68
2022/01/28 06:21:48;;;;;;;17.40;8.77;;;2.70;99.90;;;;;;5052187;28;20021;-68
2022/01/28 06:24:14;;;;;;;15.82;8.98;;;2.70;99.90;;;;;;5034885;28;20486;-69
2022/01/28 06:26:40;;;;;;;19.10;9.23;;;2.70;99.90;;;;;;5039502;28;20029;-67
2022/01/28 06:29:14;;;;;;;22.17;9.65;;;2.70;99.90;;;;;;5037581;28;20025;-67
2022/01/28 06:31:41;;;;;;;18.58;8.88;;;2.60;99.90;;;;;;5039407;28;20479;-67
2022/01/28 06:34:07;;;;;;;20.45;11.25;;;2.60;99.90;;;;;;5047617;28;20021;-68
2022/01/28 06:36:35;;;;;;;22.45;9.38;;;2.60;99.90;;;;;;5065838;28;20436;-69
2022/01/28 06:39:02;;;;;;;16.50;10.13;;;2.60;99.90;;;;;;5040164;28;20024;-67
2022/01/28 06:41:27;;;;;;;22.02;11.02;;;2.60;99.90;;;;;;5043390;28;20017;-67
2022/01/28 06:43:53;;;;;;;20.05;10.02;;;2.60;99.90;;;;;;5053077;28;20025;-66
2022/01/28 06:46:18;;;;;;;18.70;9.18;;;2.60;99.90;;;;;;5052108;28;20025;-68
2022/01/28 06:48:44;;;;;;;16.25;9.48;;;2.70;99.90;;;;;;5038188;28;20029;-67
2022/01/28 06:51:09;;;;;;;22.90;11.48;;;2.70;99.90;;;;;;5040845;28;20111;-66
2022/01/28 06:53:35;;;;;;;22.30;10.40;;;2.70;99.90;;;;;;5050068;28;20029;-66
2022/01/28 06:56:01;;;;;;;20.65;10.60;;;2.70;99.90;;;;;;5048589;28;20025;-67
2022/01/28 06:58:26;;;;;;;16.73;9.40;;;2.70;99.90;;;;;;5049577;28;20018;-67
2022/01/28 07:00:52;;;;;;;17.90;9.32;;;2.70;99.90;;;;;;5049750;28;20017;-67
2022/01/28 07:03:17;;;;;;;17.92;9.95;;;2.70;99.90;;;;;;5046242;28;20025;-67
2022/01/28 07:05:43;;;;;;;20.48;9.82;;;2.70;99.90;;;;;;5052732;28;20040;-67
2022/01/28 07:08:09;;;;;;;21.15;10.73;;;2.70;99.90;;;;;;5042905;28;20132;-67
2022/01/28 07:10:36;;;;;;;19.90;10.27;;;2.70;99.90;;;;;;5041831;28;22148;-67
2022/01/28 07:13:02;;;;;;;17.70;10.10;;;2.70;99.90;;;;;;5046413;28;20033;-68
2022/01/28 07:15:28;;;;;;;21.60;10.65;;;2.70;99.90;;;;;;5050060;28;20040;-67
2022/01/28 07:18:02;;;;;;;33.95;17.33;;;2.70;99.90;;;;;;5050264;28;20116;-67
2022/01/28 07:20:29;;;;;;;23.10;11.00;;;2.70;99.90;;;;;;5051991;28;20060;-66
2022/01/28 07:22:55;;;;;;;20.00;10.55;;;2.70;99.90;;;;;;5046414;28;20052;-67
2022/01/28 07:25:21;;;;;;;18.85;10.05;;;2.80;99.90;;;;;;5047388;28;20029;-67
2022/01/28 07:27:46;;;;;;;19.17;9.05;;;2.70;99.90;;;;;;5043379;28;20029;-65
2022/01/28 07:30:15;;;;;;;18.80;9.80;;;2.70;99.90;;;;;;5043766;28;20025;-66
2022/01/28 07:32:42;;;;;;;19.30;8.80;;;2.70;99.90;;;;;;5047636;28;20026;-66
2022/01/28 07:35:09;;;;;;;19.13;10.05;;;2.70;99.90;;;;;;5060723;28;20029;-66
2022/01/28 07:37:34;;;;;;;15.07;9.02;;;2.70;99.90;;;;;;5050720;28;20025;-66
2022/01/28 07:40:02;;;;;;;19.27;9.45;;;2.70;99.90;;;;;;5049988;28;20155;-66
2022/01/28 07:42:32;;;;;;;19.15;10.20;;;2.80;99.90;;;;;;5032551;28;20028;-67
2022/01/28 07:44:58;;;;;;;18.58;10.27;;;2.70;99.90;;;;;;5030026;28;20504;-66
2022/01/28 07:47:23;;;;;;;22.15;9.93;;;2.70;99.90;;;;;;5030723;28;20038;-66
2022/01/28 07:49:49;;;;;;;18.33;9.68;;;2.70;99.90;;;;;;5037861;28;20025;-67
2022/01/28 07:52:15;;;;;;;17.98;8.98;;;2.70;99.90;;;;;;5050715;28;20102;-66
2022/01/28 07:54:46;;;;;;;19.00;8.75;;;2.70;99.90;;;;;;5050791;28;20445;-66
2022/01/28 07:57:12;;;;;;;14.73;7.72;;;2.70;99.90;;;;;;5050271;28;20036;-66
2022/01/28 07:59:38;;;;;;;16.70;7.63;;;2.80;99.90;;;;;;5035278;28;20037;-66
2022/01/28 08:02:03;;;;;;;15.98;8.48;;;2.80;99.90;;;;;;5045641;28;20054;-66
2022/01/28 08:04:29;;;;;;;13.85;8.52;;;2.80;99.90;;;;;;5047331;28;20029;-66
2022/01/28 08:06:55;;;;;;;19.65;8.07;;;2.90;99.90;;;;;;5030719;28;20036;-66
2022/01/28 08:09:20;;;;;;;22.80;7.82;;;2.80;99.90;;;;;;5036612;28;20083;-66
2022/01/28 08:11:46;;;;;;;17.08;8.10;;;2.90;99.90;;;;;;5049088;28;20025;-66
2022/01/28 08:14:13;;;;;;;13.98;6.90;;;2.90;99.90;;;;;;5050886;28;20074;-66
2022/01/28 08:16:39;;;;;;;13.73;7.00;;;2.90;99.90;;;;;;5048796;28;20470;-67
2022/01/28 08:19:05;;;;;;;14.95;7.65;;;3.00;99.90;;;;;;5056386;28;20112;-66
2022/01/28 08:21:31;;;;;;;14.15;7.00;;;3.00;99.90;;;;;;5050356;28;20021;-67
2022/01/28 08:23:56;;;;;;;17.77;7.65;;;3.00;99.90;;;;;;5050936;28;20094;-66
2022/01/28 08:26:22;;;;;;;15.70;7.53;;;3.00;99.90;;;;;;5050764;28;20044;-66
2022/01/28 08:28:48;;;;;;;15.68;8.18;;;3.00;99.90;;;;;;5050332;28;20036;-66
2022/01/28 08:31:14;;;;;;;14.88;7.50;;;3.00;99.90;;;;;;5054922;28;20354;-66
2022/01/28 08:33:39;;;;;;;14.93;7.28;;;3.00;99.90;;;;;;5058460;28;20031;-67
2022/01/28 08:36:05;;;;;;;14.20;7.38;;;3.00;99.90;;;;;;5051068;28;20485;-66
2022/01/28 08:38:36;;;;;;;14.73;7.25;;;3.00;99.90;;;;;;5032495;28;20028;-67
2022/01/28 08:41:03;;;;;;;13.30;6.63;;;3.10;99.90;;;;;;5049924;28;20488;-66
2022/01/28 08:43:28;;;;;;;15.27;7.25;;;3.10;99.90;;;;;;5050311;28;20039;-66
2022/01/28 08:45:54;;;;;;;13.07;6.30;;;3.10;99.90;;;;;;5050813;28;20024;-66
2022/01/28 08:48:20;;;;;;;12.73;7.72;;;3.20;99.90;;;;;;5042448;28;20025;-67
2022/01/28 08:50:46;;;;;;;11.45;7.15;;;3.20;99.90;;;;;;5047774;28;20126;-67
2022/01/28 08:53:12;;;;;;;13.43;6.65;;;3.20;99.90;;;;;;5051148;28;20477;-67
2022/01/28 08:55:38;;;;;;;11.75;5.97;;;3.20;99.90;;;;;;5055037;28;20416;-66
2022/01/28 08:58:05;;;;;;;16.15;6.90;;;3.30;99.90;;;;;;5056648;28;20025;-66
2022/01/28 09:00:30;;;;;;;16.33;6.95;;;3.30;99.90;;;;;;5056044;28;20025;-66
2022/01/28 09:02:56;;;;;;;10.50;6.20;;;3.30;99.90;;;;;;5050425;28;20071;-66
2022/01/28 09:05:23;;;;;;;14.38;6.50;;;3.40;99.90;;;;;;5043416;28;20039;-66
2022/01/28 09:07:50;;;;;;;12.65;5.93;;;3.40;99.90;;;;;;5035333;28;20117;-66
2022/01/28 09:10:23;;;;;;;12.48;5.75;;;3.40;99.90;;;;;;5048514;28;20380;-67
2022/01/28 09:15:31;;;;;;;15.10;6.50;;;3.50;99.90;;;;;;5054186;28;20135;-67
2022/01/28 09:17:58;;;;;;;11.80;6.53;;;3.50;99.90;;;;;;5063982;28;20112;-67
2022/01/28 09:20:24;;;;;;;12.65;6.35;;;3.60;99.90;;;;;;5051866;28;20064;-67
2022/01/28 09:22:50;;;;;;;13.32;6.30;;;3.60;99.90;;;;;;5049573;28;20036;-66
2022/01/28 09:25:16;;;;;;;13.50;5.85;;;3.60;99.90;;;;;;5035776;28;20050;-66
2022/01/28 09:27:42;;;;;;;13.02;6.20;;;3.60;99.90;;;;;;5033103;28;20131;-67
2022/01/28 09:30:08;;;;;;;13.27;6.07;;;3.60;99.90;;;;;;5041438;28;20033;-67
2022/01/28 09:32:34;;;;;;;15.20;5.82;;;3.70;99.90;;;;;;5033835;28;20029;-66
2022/01/28 09:35:00;;;;;;;12.75;6.32;;;3.70;99.90;;;;;;5053331;28;20021;-67
2022/01/28 09:37:26;;;;;;;11.43;5.63;;;3.70;99.90;;;;;;5061799;28;20017;-66
2022/01/28 09:39:51;;;;;;;11.77;6.35;;;3.70;99.90;;;;;;5050169;28;20875;-66
2022/01/28 09:42:20;;;;;;;12.50;6.15;;;3.70;99.90;;;;;;5068551;28;20067;-67
2022/01/28 09:44:46;;;;;;;14.45;6.30;;;3.80;99.90;;;;;;5053412;28;20059;-68
2022/01/28 09:47:12;;;;;;;14.15;6.28;;;3.80;99.90;;;;;;5052640;28;20029;-67
2022/01/28 09:49:39;;;;;;;10.52;6.03;;;3.90;99.90;;;;;;5066006;28;20413;-67
2022/01/28 09:52:07;;;;;;;15.15;7.10;;;3.90;99.90;;;;;;5033421;28;20061;-67
2022/01/28 09:54:34;;;;;;;14.88;5.75;;;4.00;99.90;;;;;;5039795;28;20039;-66
2022/01/28 09:57:01;;;;;;;14.73;6.07;;;4.10;99.90;;;;;;5046653;28;20026;-66
2022/01/28 09:59:26;;;;;;;15.52;6.70;;;4.10;99.90;;;;;;5049259;28;20027;-67
2022/01/28 10:01:54;;;;;;;12.50;6.35;;;4.20;99.90;;;;;;5037678;28;20024;-67
2022/01/28 10:04:21;;;;;;;11.55;5.43;;;4.20;99.90;;;;;;5052163;28;20457;-67
2022/01/28 10:06:47;;;;;;;14.00;6.50;;;4.30;99.90;;;;;;5037571;28;20450;-67
2022/01/28 10:09:16;;;;;;;14.23;6.15;;;4.30;99.90;;;;;;5044167;28;20026;-67
2022/01/28 10:11:44;;;;;;;13.95;6.47;;;4.30;99.90;;;;;;5067097;28;20031;-67
2022/01/28 10:14:14;;;;;;;15.70;6.13;;;4.30;99.90;;;;;;5044319;28;20120;-67
2022/01/28 10:16:40;;;;;;;11.57;5.45;;;4.30;99.90;;;;;;5059288;28;20049;-67
2022/01/28 10:19:07;;;;;;;13.02;5.25;;;4.30;99.90;;;;;;5032679;28;20076;-67
2022/01/28 10:21:39;;;;;;;12.25;5.82;;;4.20;99.90;;;;;;5041059;28;20033;-67
2022/01/28 10:24:08;;;;;;;12.77;5.00;;;4.30;99.90;;;;;;5052578;28;20104;-67
2022/01/28 10:26:37;;;;;;;12.80;5.32;;;4.30;99.90;;;;;;5035102;28;20055;-67
2022/01/28 10:29:05;;;;;;;10.80;5.22;;;4.30;99.90;;;;;;5037903;28;20030;-67
2022/01/28 10:32:01;;;;;;;12.18;5.75;;;4.30;99.90;;;;;;5060609;28;20037;-67
2022/01/28 10:34:35;;;;;;;12.95;5.22;;;4.40;99.90;;;;;;5032204;28;20408;-67
2022/01/28 10:37:18;;;;;;;14.77;5.40;;;4.40;99.90;;;;;;5046106;28;20108;-66
2022/01/28 10:39:47;;;;;;;12.02;5.93;;;4.40;99.90;;;;;;5052655;28;20024;-67
2022/01/28 10:42:16;;;;;;;13.95;5.82;;;4.40;99.90;;;;;;5049892;28;20112;-67
2022/01/28 10:45:14;;;;;;;16.42;6.07;;;4.50;99.90;;;;;;5036802;28;20535;-67
2022/01/28 10:47:43;;;;;;;16.30;6.13;;;4.40;99.90;;;;;;5038796;28;20055;-67
2022/01/28 10:50:19;;;;;;;12.98;5.72;;;4.40;99.90;;;;;;5030941;28;20389;-67
2022/01/28 10:52:48;;;;;;;13.10;5.20;;;4.40;99.90;;;;;;5051714;28;20112;-67
2022/01/28 10:55:19;;;;;;;12.43;5.65;;;4.40;99.90;;;;;;5051210;28;20056;-67
2022/01/28 10:58:00;;;;;;;13.73;5.68;;;4.40;99.90;;;;;;5058771;28;20021;-66
2022/01/28 11:00:29;;;;;;;9.27;4.72;;;4.40;99.90;;;;;;5032067;28;20030;-67
2022/01/28 11:03:00;;;;;;;12.70;4.85;;;4.50;99.90;;;;;;5045587;28;20668;-67
2022/01/28 11:07:54;;;;;;;12.77;5.53;;;4.60;99.90;;;;;;5089684;28;20044;-68
2022/01/28 11:10:20;;;;;;;11.45;5.43;;;4.60;99.90;;;;;;5085045;28;20403;-68
2022/01/28 11:12:46;;;;;;;11.90;5.65;;;4.60;99.90;;;;;;5088635;28;20013;-68
2022/01/28 11:15:12;;;;;;;12.25;4.88;;;4.50;99.90;;;;;;5054250;28;20055;-69
2022/01/28 11:17:40;;;;;;;18.33;6.78;;;4.50;99.90;;;;;;5071023;28;20028;-68
2022/01/28 11:20:07;;;;;;;16.05;5.28;;;4.50;99.90;;;;;;5071984;28;20048;-68
2022/01/28 11:23:02;;;;;;;14.15;5.60;;;4.50;99.90;;;;;;5070897;28;20534;-69
2022/01/28 11:25:56;;;;;;;10.48;4.93;;;4.40;99.90;;;;;;5058046;28;20047;-69
2022/01/28 11:28:40;;;;;;;15.10;5.78;;;4.40;99.90;;;;;;5053000;28;20021;-68
2022/01/28 11:31:06;;;;;;;13.38;5.78;;;4.40;99.90;;;;;;5071285;28;20095;-68
2022/01/28 11:33:51;;;;;;;16.33;7.75;;;4.40;99.90;;;;;;5070787;28;20108;-68
2022/01/28 11:36:34;;;;;;;13.25;6.57;;;4.40;99.90;;;;;;5033620;28;20025;-68
2022/01/28 11:39:27;;;;;;;13.70;6.93;;;4.40;99.90;;;;;;5055487;28;20089;-69
2022/01/28 11:42:11;;;;;;;21.58;6.90;;;4.40;99.90;;;;;;5071596;28;20136;-69
2022/01/28 11:44:44;;;;;;;12.10;5.68;;;4.40;99.90;;;;;;5069077;28;20021;-68
2022/01/28 11:47:19;;;;;;;14.40;6.35;;;4.40;99.90;;;;;;5069749;28;20122;-68
2022/01/28 11:49:53;;;;;;;12.48;5.72;;;4.40;99.90;;;;;;5070929;28;20033;-68
2022/01/28 11:52:43;;;;;;;9.60;5.40;;;4.40;99.90;;;;;;5070012;28;20020;-69
2022/01/28 11:55:14;;;;;;;14.65;5.95;;;4.40;99.90;;;;;;5060837;28;20198;-68
2022/01/28 11:58:13;;;;;;;8.68;5.30;;;4.50;99.90;;;;;;5068559;28;20503;-68
2022/01/28 12:00:50;;;;;;;11.20;4.72;;;4.50;99.90;;;;;;5055595;28;20771;-69
2022/01/28 12:03:21;;;;;;;12.07;5.03;;;4.50;99.90;;;;;;5069910;28;20464;-70
2022/01/28 12:05:46;;;;;;;12.35;4.85;;;4.60;99.90;;;;;;5053504;28;20071;-70
2022/01/28 12:08:14;;;;;;;13.60;6.13;;;4.60;99.90;;;;;;5051983;28;20493;-69
2022/01/28 12:10:46;;;;;;;12.20;5.20;;;4.60;99.90;;;;;;5066020;28;20078;-70
2022/01/28 12:13:16;;;;;;;11.70;5.72;;;4.60;99.90;;;;;;5067833;28;20108;-69
2022/01/28 12:18:55;;;;;;;11.52;4.80;;;4.60;99.90;;;;;;5043243;28;20379;-69
2022/01/28 12:21:27;;;;;;;13.05;5.13;;;4.60;99.90;;;;;;5065858;28;20024;-69
2022/01/28 12:24:13;;;;;;;13.38;5.43;;;4.60;99.90;;;;;;5070788;28;20024;-69
2022/01/28 12:27:08;;;;;;;11.98;4.63;;;4.60;99.90;;;;;;5069417;28;20032;-69
2022/01/28 12:29:46;;;;;;;11.73;4.40;;;4.50;99.90;;;;;;5067457;28;20511;-69
2022/01/28 12:32:12;;;;;;;11.32;5.53;;;4.50;99.90;;;;;;5070154;28;20039;-69
2022/01/28 12:34:45;;;;;;;14.73;6.13;;;4.50;99.90;;;;;;5078184;28;20028;-69
2022/01/28 12:37:11;;;;;;;12.23;6.40;;;4.50;99.90;;;;;;5069095;28;20032;-69
2022/01/28 12:39:43;;;;;;;12.50;6.97;;;4.50;99.90;;;;;;5069626;28;20024;-68
2022/01/28 12:42:23;;;;;;;17.23;7.28;;;4.50;99.90;;;;;;5067047;28;20052;-69
2022/01/28 12:44:53;;;;;;;17.08;7.38;;;4.50;99.90;;;;;;5070970;28;20024;-69
2022/01/28 12:47:19;;;;;;;11.45;5.53;;;4.60;99.90;;;;;;5070154;28;20052;-69
2022/01/28 12:49:46;;;;;;;15.90;7.75;;;4.70;99.90;;;;;;5066595;28;20395;-69
2022/01/28 12:52:12;;;;;;;13.73;6.80;;;4.80;99.90;;;;;;5069431;28;20024;-70
2022/01/28 12:54:43;;;;;;;15.20;5.85;;;4.90;99.90;;;;;;5070129;28;20037;-70
2022/01/28 12:57:10;;;;;;;17.50;7.93;;;5.00;99.90;;;;;;5050799;28;20083;-70
2022/01/28 12:59:38;;;;;;;12.85;5.82;;;5.00;99.90;;;;;;5069803;28;20016;-70
2022/01/28 13:02:04;;;;;;;17.33;6.50;;;5.20;99.90;;;;;;5070182;28;20032;-70
2022/01/28 13:04:49;;;;;;;14.40;5.90;;;5.50;99.90;;;;;;5069487;28;20391;-70
2022/01/28 13:09:56;;;;;;;11.63;5.40;;;6.10;99.90;;;;;;5058649;28;20031;-70
2022/01/28 13:12:27;;;;;;;9.98;5.15;;;6.30;99.90;;;;;;5069701;28;20062;-70
2022/01/28 13:14:53;;;;;;;9.73;5.00;;;6.60;99.90;;;;;;5070274;28;20071;-70
2022/01/28 13:17:21;;;;;;;13.93;4.75;;;6.70;99.90;;;;;;5068611;28;20115;-70
2022/01/28 13:19:58;;;;;;;11.15;4.97;;;6.80;99.90;;;;;;5069566;28;20095;-70
2022/01/28 13:22:29;;;;;;;15.25;5.25;;;6.90;99.90;;;;;;5069941;28;20028;-68
2022/01/28 13:24:56;;;;;;;8.60;4.82;;;7.10;99.90;;;;;;5069662;28;20438;-69
2022/01/28 13:27:38;;;;;;;11.75;5.07;;;7.20;99.90;;;;;;5069788;28;20055;-71
2022/01/28 13:30:13;;;;;;;11.23;4.60;;;7.40;99.90;;;;;;5071627;28;20044;-71
2022/01/28 13:32:41;;;;;;;14.02;4.22;;;7.40;99.90;;;;;;5068232;28;20084;-70
2022/01/28 13:35:27;;;;;;;13.48;4.70;;;7.20;99.90;;;;;;5080674;28;20107;-70
2022/01/28 13:37:56;;;;;;;14.40;4.72;;;7.10;99.90;;;;;;5068745;28;20373;-68
2022/01/28 13:40:21;;;;;;;8.90;4.25;;;7.00;99.90;;;;;;5034734;28;20035;-68
2022/01/28 13:43:10;;;;;;;9.38;4.40;;;7.00;99.90;;;;;;5069519;28;20380;-68
2022/01/28 13:45:46;;;;;;;10.30;6.32;;;6.80;99.90;;;;;;5051167;28;20358;-69
2022/01/28 13:48:14;;;;;;;12.73;4.97;;;6.70;99.90;;;;;;5061577;28;20074;-68
2022/01/28 13:50:45;;;;;;;9.77;4.35;;;6.50;99.90;;;;;;5070201;28;20036;-70
2022/01/28 13:53:33;;;;;;;9.55;4.55;;;6.40;99.90;;;;;;5066571;28;20033;-71
2022/01/28 13:56:02;;;;;;;7.15;3.55;;;6.30;99.90;;;;;;5067480;28;20086;-69
2022/01/28 13:58:43;;;;;;;12.43;4.78;;;6.10;99.90;;;;;;5053310;28;20028;-69
2022/01/28 14:01:09;;;;;;;10.65;4.35;;;6.00;99.90;;;;;;5063018;28;20032;-70
2022/01/28 14:03:48;;;;;;;9.57;4.65;;;5.90;99.90;;;;;;5071843;28;20027;-70
2022/01/28 14:06:26;;;;;;;13.07;4.95;;;5.80;99.90;;;;;;5073582;28;20040;-69
2022/01/28 14:09:02;;;;;;;9.98;4.50;;;5.80;99.90;;;;;;5053489;28;20032;-70
2022/01/28 14:11:31;;;;;;;11.18;4.30;;;5.70;99.90;;;;;;5061110;28;20055;-70
2022/01/28 14:14:22;;;;;;;8.35;4.00;;;5.70;99.90;;;;;;5052730;28;20021;-70
2022/01/28 14:16:49;;;;;;;9.38;3.92;;;5.60;99.90;;;;;;5072138;28;20027;-71
2022/01/28 14:19:15;;;;;;;8.52;4.13;;;5.50;99.90;;;;;;5055646;28;20021;-71
2022/01/28 14:21:42;;;;;;;9.65;4.03;;;5.50;99.90;;;;;;5054148;28;20028;-70
2022/01/28 14:24:08;;;;;;;12.13;4.80;;;5.50;99.90;;;;;;5071704;28;20025;-70
2022/01/28 14:26:42;;;;;;;6.85;4.47;;;5.50;99.90;;;;;;5071529;28;20028;-70
2022/01/28 14:31:54;;;;;;;8.15;5.43;;;5.40;99.90;;;;;;5071988;28;20086;-72
2022/01/28 14:34:21;;;;;;;8.82;3.83;;;5.40;99.90;;;;;;5045214;28;20492;-72
2022/01/28 14:36:46;;;;;;;9.98;5.78;;;5.40;99.90;;;;;;5045953;28;20037;-69
2022/01/28 14:39:16;;;;;;;8.18;4.10;;;5.40;99.90;;;;;;5038292;28;20107;-70